createdAt,value
2022-09-09T00:03:29.659Z,13.80
2022-09-09T00:06:45.540Z,14.60
2022-09-09T00:09:59.651Z,12.90
2022-09-09T00:13:18.276Z,11.70
2022-09-09T00:16:28.411Z,11.30
2022-09-09T00:19:41.200Z,11.50
2022-09-09T00:23:00.683Z,11.10
2022-09-09T00:26:15.946Z,12.40
2022-09-09T00:29:32.585Z,10.60
2022-09-09T00:32:40.432Z,10.00
2022-09-09T00:35:49.766Z,10.60
2022-09-09T00:38:59.731Z,10.00
2022-09-09T00:42:17.438Z,9.70
2022-09-09T00:45:41.982Z,9.70
2022-09-09T00:48:55.443Z,8.20
2022-09-09T00:52:19.570Z,9.00
2022-09-09T00:55:41.465Z,9.80
2022-09-09T00:59:01.159Z,9.10
2022-09-09T01:02:14.470Z,9.50
2022-09-09T01:05:27.704Z,9.30
2022-09-09T01:09:07.302Z,9.00
2022-09-09T01:12:17.851Z,8.70
2022-09-09T01:15:29.033Z,8.50
2022-09-09T01:18:38.084Z,9.40
2022-09-09T01:22:02.518Z,8.30
2022-09-09T01:26:03.215Z,7.10
2022-09-09T01:29:11.727Z,8.80
2022-09-09T01:32:51.413Z,8.70
2022-09-09T01:36:02.861Z,8.80
2022-09-09T01:39:08.908Z,10.30
2022-09-09T01:42:17.443Z,7.10
2022-09-09T01:45:24.320Z,6.80
2022-09-09T01:48:30.667Z,7.40
2022-09-09T01:51:37.017Z,7.30
2022-09-09T01:54:43.040Z,11.60
2022-09-09T01:57:58.542Z,8.40
2022-09-09T02:01:15.447Z,8.50
2022-09-09T02:04:33.646Z,7.70
2022-09-09T02:07:43.539Z,6.50
2022-09-09T02:10:56.102Z,7.50
2022-09-09T02:14:06.955Z,10.50
2022-09-09T02:17:16.838Z,10.40
2022-09-09T02:20:25.339Z,8.20
2022-09-09T02:23:32.905Z,6.50
2022-09-09T02:26:41.610Z,8.30
2022-09-09T02:29:48.781Z,9.00
2022-09-09T02:32:59.076Z,8.20
2022-09-09T02:36:08.094Z,6.10
2022-09-09T02:39:14.726Z,9.90
2022-09-09T02:42:20.658Z,8.40
2022-09-09T02:48:38.968Z,6.90
2022-09-09T02:51:56.442Z,8.60
2022-09-09T02:55:12.318Z,7.30
2022-09-09T02:58:20.490Z,7.00
2022-09-09T03:01:26.846Z,8.80
2022-09-09T03:04:33.405Z,7.30
2022-09-09T03:07:40.962Z,8.70
2022-09-09T03:10:46.843Z,7.50
2022-09-09T03:13:52.742Z,8.30
2022-09-09T03:20:04.017Z,7.60
2022-09-09T03:23:15.017Z,8.10
2022-09-09T03:26:21.742Z,10.20
2022-09-09T03:32:32.447Z,10.40
2022-09-09T03:35:38.354Z,9.50
2022-09-09T03:38:44.482Z,10.10
2022-09-09T03:41:50.347Z,7.90
2022-09-09T03:44:58.914Z,9.60
2022-09-09T03:48:06.495Z,10.80
2022-09-09T03:51:12.375Z,9.60
2022-09-09T03:54:18.397Z,9.00
2022-09-09T03:57:24.854Z,9.70
2022-09-09T04:00:31.708Z,8.90
2022-09-09T04:03:37.660Z,7.80
2022-09-09T04:09:47.852Z,6.70
2022-09-09T04:12:53.730Z,9.70
2022-09-09T04:16:01.519Z,9.90
2022-09-09T04:19:08.830Z,8.20
2022-09-09T04:22:14.735Z,6.70
2022-09-09T04:25:20.687Z,11.20
2022-09-09T04:28:28.893Z,10.50
2022-09-09T04:31:35.839Z,8.60
2022-09-09T04:34:42.354Z,8.10
2022-09-09T04:37:49.045Z,11.70
2022-09-09T04:40:55.397Z,9.30
2022-09-09T04:44:01.872Z,8.60
2022-09-09T04:47:08.023Z,9.90
2022-09-09T04:50:14.181Z,8.50
2022-09-09T04:53:20.226Z,9.70
2022-09-09T04:59:31.302Z,9.40
2022-09-09T05:02:39.168Z,11.60
2022-09-09T05:05:45.797Z,9.60
2022-09-09T05:08:51.785Z,11.20
2022-09-09T05:15:02.747Z,10.60
2022-09-09T05:18:09.806Z,15.40
2022-09-09T05:21:17.617Z,12.10
2022-09-09T05:24:24.272Z,12.60
2022-09-09T05:27:32.520Z,13.20
2022-09-09T05:30:38.411Z,12.10
2022-09-09T05:33:47.139Z,11.40
2022-09-09T05:36:53.873Z,20.10
2022-09-09T05:40:00.266Z,14.60
2022-09-09T05:43:06.321Z,13.30
2022-09-09T05:49:17.246Z,17.70
2022-09-09T05:55:27.786Z,12.40
2022-09-09T05:58:34.478Z,8.40
2022-09-09T06:01:41.609Z,7.40
2022-09-09T06:04:47.968Z,9.60
2022-09-09T06:07:56.814Z,13.20
2022-09-09T06:11:07.500Z,8.30
2022-09-09T06:14:13.410Z,10.30
2022-09-09T06:17:19.386Z,9.40
2022-09-09T06:23:30.815Z,11.30
2022-09-09T06:26:38.734Z,17.40
2022-09-09T06:29:44.598Z,14.20
2022-09-09T06:32:51.086Z,9.70
2022-09-09T06:35:58.309Z,16.60
2022-09-09T06:39:04.995Z,14.80
2022-09-09T06:42:11.190Z,12.00
2022-09-09T06:45:17.107Z,10.90
2022-09-09T06:51:28.863Z,12.80
2022-09-09T06:54:34.762Z,13.00
2022-09-09T07:00:44.877Z,10.70
2022-09-09T07:06:57.148Z,14.10
2022-09-09T07:13:08.737Z,14.10
2022-09-09T07:16:16.821Z,14.60
2022-09-09T07:19:22.718Z,9.90
2022-09-09T07:25:32.851Z,11.30
2022-09-09T07:31:43.894Z,12.90
2022-09-09T07:34:51.318Z,12.90
2022-09-09T07:37:57.274Z,15.70
2022-09-09T07:41:12.764Z,14.30
2022-09-09T07:44:20.210Z,8.50
2022-09-09T07:47:26.071Z,18.40
2022-09-09T07:53:37.783Z,11.60
2022-09-09T07:56:44.286Z,9.70
2022-09-09T07:59:50.497Z,9.30
2022-09-09T08:02:56.423Z,7.40
2022-09-09T08:06:07.371Z,7.80
2022-09-09T08:09:13.593Z,8.00
2022-09-09T08:12:20.042Z,9.10
2022-09-09T08:15:25.915Z,7.60
2022-09-09T08:18:32.042Z,11.40
2022-09-09T08:21:41.205Z,8.60
2022-09-09T08:24:48.330Z,8.50
2022-09-09T08:27:55.372Z,10.90
2022-09-09T08:31:09.344Z,11.40
2022-09-09T08:34:16.133Z,8.00
2022-09-09T08:37:22.704Z,11.60
2022-09-09T08:40:36.133Z,8.00
2022-09-09T08:43:43.830Z,9.00
2022-09-09T08:47:03.203Z,5.90
2022-09-09T08:50:22.817Z,10.00
2022-09-09T08:53:39.126Z,11.40
2022-09-09T08:56:45.799Z,12.90
2022-09-09T08:59:52.894Z,9.00
2022-09-09T09:03:08.018Z,7.50
2022-09-09T09:06:29.419Z,5.00
2022-09-09T09:09:41.358Z,9.30
2022-09-09T09:12:50.163Z,11.00
2022-09-09T09:16:01.049Z,5.80
2022-09-09T09:19:07.166Z,5.60
2022-09-09T09:22:23.120Z,10.80
2022-09-09T09:25:33.814Z,11.90
2022-09-09T09:28:41.886Z,6.50
2022-09-09T09:31:51.054Z,3.10
2022-09-09T09:35:00.533Z,6.00
2022-09-09T09:41:46.775Z,5.20
2022-09-09T09:44:53.411Z,10.20
2022-09-09T09:48:08.490Z,5.20
2022-09-09T09:51:17.929Z,5.00
2022-09-09T09:54:30.485Z,6.50
2022-09-09T09:57:38.195Z,3.40
2022-09-09T10:00:52.363Z,7.80
2022-09-09T10:04:00.499Z,8.50
2022-09-09T10:07:14.580Z,3.30
2022-09-09T10:10:29.883Z,2.40
2022-09-09T10:13:46.965Z,9.60
2022-09-09T10:17:06.475Z,7.50
2022-09-09T10:20:34.789Z,8.80
2022-09-09T10:23:55.473Z,9.50
2022-09-09T10:27:08.790Z,9.70
2022-09-09T10:30:20.139Z,8.10
2022-09-09T10:33:35.242Z,8.90
2022-09-09T10:36:50.244Z,9.50
2022-09-09T10:40:04.817Z,8.00
2022-09-09T10:43:22.629Z,4.80
2022-09-09T10:46:37.236Z,3.70
2022-09-09T10:50:09.594Z,6.50
2022-09-09T10:53:24.923Z,10.40
2022-09-09T10:59:42.715Z,5.10
2022-09-09T11:02:51.799Z,5.60
2022-09-09T11:06:02.118Z,4.80
2022-09-09T11:09:16.884Z,5.00
2022-09-09T11:12:23.799Z,6.10
2022-09-09T11:15:37.473Z,5.10
2022-09-09T11:18:46.797Z,4.50
2022-09-09T11:21:55.561Z,3.50
2022-09-09T11:25:06.177Z,3.80
2022-09-09T11:28:32.322Z,1.80
2022-09-09T11:31:47.604Z,3.00
2022-09-09T11:38:27.475Z,3.80
2022-09-09T11:41:38.818Z,3.20
2022-09-09T11:44:45.366Z,1.30
2022-09-09T11:47:58.078Z,7.10
2022-09-09T11:51:11.052Z,5.00
2022-09-09T11:54:33.171Z,5.40
2022-09-09T11:57:40.631Z,5.40
2022-09-09T12:00:48.603Z,5.80
2022-09-09T12:03:58.284Z,4.40
2022-09-09T12:07:07.066Z,5.60
2022-09-09T12:10:28.629Z,2.80
2022-09-09T12:13:35.127Z,2.30
2022-09-09T12:16:41.441Z,2.30
2022-09-09T12:19:47.679Z,2.40
2022-09-09T12:23:09.935Z,4.60
2022-09-09T12:26:36.234Z,3.10
2022-09-09T12:29:51.222Z,2.20
2022-09-09T12:33:11.760Z,2.80
2022-09-09T12:36:21.783Z,2.90
2022-09-09T12:39:36.050Z,2.60
2022-09-09T12:42:44.793Z,3.40
2022-09-09T12:45:57.723Z,2.70
2022-09-09T12:49:03.779Z,3.10
2022-09-09T12:52:15.721Z,2.50
2022-09-09T12:55:26.325Z,4.40
2022-09-09T12:58:34.143Z,1.80
2022-09-09T13:01:40.252Z,4.00
2022-09-09T13:04:48.104Z,4.90
2022-09-09T13:07:54.410Z,3.50
2022-09-09T13:11:04.350Z,2.60
2022-09-09T13:14:20.215Z,2.70
2022-09-09T13:17:30.200Z,1.60
2022-09-09T13:20:36.216Z,2.80
2022-09-09T13:23:42.193Z,3.70
2022-09-09T13:26:57.267Z,5.40
2022-09-09T13:30:03.509Z,3.20
2022-09-09T13:33:24.294Z,2.40
2022-09-09T13:36:35.918Z,3.50
2022-09-09T13:39:41.932Z,2.70
2022-09-09T13:42:49.101Z,3.50
2022-09-09T13:46:00.512Z,3.50
2022-09-09T13:49:23.870Z,4.30
2022-09-09T13:52:33.026Z,3.70
2022-09-09T13:55:40.573Z,1.70
2022-09-09T13:58:46.438Z,2.80
2022-09-09T14:01:53.479Z,2.10
2022-09-09T14:04:59.359Z,5.00
2022-09-09T14:08:08.322Z,2.70
2022-09-09T14:11:16.099Z,2.40
2022-09-09T14:14:21.980Z,2.90
2022-09-09T14:17:32.434Z,1.30
2022-09-09T14:20:38.316Z,3.90
2022-09-09T14:23:44.200Z,4.20
2022-09-09T14:26:50.155Z,4.60
2022-09-09T14:29:56.349Z,4.50
2022-09-09T14:33:02.270Z,6.30
2022-09-09T14:36:08.998Z,5.00
2022-09-09T14:39:15.017Z,3.20
2022-09-09T14:42:20.971Z,3.60
2022-09-09T14:45:27.542Z,6.30
2022-09-09T14:48:35.065Z,5.10
2022-09-09T14:51:41.066Z,4.80
2022-09-09T14:54:46.912Z,4.10
2022-09-09T14:57:52.795Z,4.20
2022-09-09T15:01:03.902Z,4.70
2022-09-09T15:04:09.995Z,2.40
2022-09-09T15:07:15.902Z,4.60
2022-09-09T15:10:22.244Z,4.40
2022-09-09T15:13:28.266Z,5.70
2022-09-09T15:16:34.855Z,4.40
2022-09-09T15:19:43.235Z,3.40
2022-09-09T15:22:49.851Z,2.60
2022-09-09T15:25:57.631Z,5.50
2022-09-09T15:29:04.027Z,5.90
2022-09-09T15:32:10.558Z,5.90
2022-09-09T15:35:16.563Z,7.20
2022-09-09T15:38:22.462Z,5.80
2022-09-09T15:41:29.659Z,3.90
2022-09-09T15:44:43.611Z,5.40
2022-09-09T15:47:51.459Z,3.60
2022-09-09T15:51:19.575Z,5.20
2022-09-09T15:54:35.920Z,6.10
2022-09-09T15:57:41.782Z,4.40
2022-09-09T16:00:47.973Z,5.30
2022-09-09T16:03:54.004Z,5.70
2022-09-09T16:07:02.029Z,9.90
2022-09-09T16:10:09.339Z,6.40
2022-09-09T16:13:15.226Z,7.70
2022-09-09T16:16:24.843Z,5.60
2022-09-09T16:19:30.718Z,6.00
2022-09-09T16:22:36.657Z,8.70
2022-09-09T16:25:43.412Z,5.80
2022-09-09T16:28:49.754Z,5.70
2022-09-09T16:31:59.883Z,5.40
2022-09-09T16:35:10.587Z,6.40
2022-09-09T16:38:16.548Z,6.70
2022-09-09T16:41:23.022Z,8.30
2022-09-09T16:44:28.975Z,7.70
2022-09-09T16:47:35.418Z,9.20
2022-09-09T16:50:41.567Z,6.80
2022-09-09T16:53:47.830Z,6.60
2022-09-09T16:56:53.703Z,6.80
2022-09-09T17:00:00.624Z,8.50
2022-09-09T17:03:07.067Z,6.70
2022-09-09T17:06:16.023Z,8.70
2022-09-09T17:09:23.729Z,7.70
2022-09-09T17:12:29.708Z,9.10
2022-09-09T17:15:35.883Z,10.80
2022-09-09T17:18:42.242Z,9.10
2022-09-09T17:22:14.917Z,12.50
2022-09-09T17:25:15.188Z,11.20
2022-09-09T17:28:26.493Z,10.30
2022-09-09T17:31:33.736Z,10.60
2022-09-09T17:34:40.170Z,10.20
2022-09-09T17:37:46.283Z,10.70
2022-09-09T17:40:52.182Z,13.90
2022-09-09T17:47:19.830Z,11.20
2022-09-09T17:50:26.106Z,11.50
2022-09-09T17:53:32.503Z,10.70
2022-09-09T17:56:39.915Z,12.20
2022-09-09T17:59:45.890Z,12.80
2022-09-09T18:02:51.890Z,13.20
2022-09-09T18:06:03.717Z,12.00
2022-09-09T18:09:13.356Z,14.00
2022-09-09T18:12:19.299Z,11.10
2022-09-09T18:18:45.522Z,13.20
2022-09-09T18:21:51.737Z,13.50
2022-09-09T18:24:58.099Z,15.50
2022-09-09T18:28:04.123Z,16.40
2022-09-09T18:31:12.816Z,15.00
2022-09-09T18:34:20.250Z,15.70
2022-09-09T18:37:26.197Z,19.10
2022-09-09T18:43:36.982Z,19.50
2022-09-09T18:49:47.951Z,15.90
2022-09-09T18:52:54.074Z,15.70
2022-09-09T18:56:02.943Z,14.30
2022-09-09T18:59:11.687Z,13.10
2022-09-09T19:02:17.576Z,14.20
2022-09-09T19:08:27.877Z,14.50
2022-09-09T19:11:34.166Z,13.10
2022-09-09T19:14:40.459Z,15.20
2022-09-09T19:17:46.337Z,14.40
2022-09-09T19:24:01.047Z,13.90
2022-09-09T19:27:08.071Z,12.30
2022-09-09T19:30:14.715Z,13.60
2022-09-09T19:33:20.614Z,13.00
2022-09-09T19:39:32.258Z,14.10
2022-09-09T19:42:38.161Z,13.00
2022-09-09T19:48:48.834Z,19.80
2022-09-09T19:51:56.015Z,15.40
2022-09-09T19:55:01.890Z,12.50
2022-09-09T19:58:07.935Z,14.60
2022-09-09T20:04:19.078Z,13.70
2022-09-09T20:10:30.443Z,13.80
2022-09-09T20:13:39.138Z,14.00
2022-09-09T20:16:46.588Z,15.80
2022-09-09T20:19:52.549Z,13.60
2022-09-09T20:26:08.013Z,14.00
2022-09-09T20:29:17.327Z,14.20
2022-09-09T20:32:23.179Z,13.40
2022-09-09T20:35:29.551Z,15.60
2022-09-09T20:38:35.685Z,13.60
2022-09-09T20:41:45.528Z,14.40
2022-09-09T20:44:51.962Z,15.00
2022-09-09T20:47:58.238Z,13.20
2022-09-09T20:51:10.105Z,15.10
2022-09-09T20:54:17.850Z,14.00
2022-09-09T20:57:24.618Z,13.40
2022-09-09T21:00:30.549Z,14.20
2022-09-09T21:06:43.390Z,13.80
2022-09-09T21:09:49.436Z,15.20
2022-09-09T21:16:00.932Z,15.60
2022-09-09T21:19:06.892Z,13.70
2022-09-09T21:22:14.340Z,13.60
2022-09-09T21:25:20.220Z,17.20
2022-09-09T21:28:27.852Z,12.70
2022-09-09T21:31:33.945Z,13.90
2022-09-09T21:34:42.160Z,13.60
2022-09-09T21:37:48.283Z,13.50
2022-09-09T21:40:54.318Z,13.00
2022-09-09T21:47:04.572Z,13.90
2022-09-09T21:53:20.449Z,14.10
2022-09-09T21:56:26.926Z,13.80
2022-09-09T21:59:33.995Z,13.60
2022-09-09T22:02:40.218Z,15.00
2022-09-09T22:05:50.719Z,13.50
2022-09-09T22:09:01.875Z,14.30
2022-09-09T22:12:08.370Z,12.20
2022-09-09T22:15:14.707Z,15.10
2022-09-09T22:18:20.566Z,13.20
2022-09-09T22:21:27.854Z,15.10
2022-09-09T22:24:34.263Z,13.70
2022-09-09T22:27:40.258Z,13.50
2022-09-09T22:33:51.224Z,14.10
2022-09-09T22:36:57.478Z,13.10
2022-09-09T22:40:03.740Z,13.00
2022-09-09T22:43:16.761Z,14.00
2022-09-09T22:46:23.813Z,13.00
2022-09-09T22:49:30.387Z,12.30
2022-09-09T22:52:36.253Z,12.00
2022-09-09T22:55:42.324Z,15.30
2022-09-09T23:01:53.497Z,14.10
2022-09-09T23:04:59.670Z,15.20
2022-09-09T23:08:05.611Z,13.10
2022-09-09T23:11:13.791Z,15.60
2022-09-09T23:14:19.670Z,12.60
2022-09-09T23:17:25.905Z,13.10
2022-09-09T23:20:32.343Z,11.70
2022-09-09T23:23:39.030Z,14.50
2022-09-09T23:26:46.762Z,13.30
2022-09-09T23:29:52.894Z,13.00
2022-09-09T23:32:58.738Z,12.40
2022-09-09T23:36:08.546Z,13.90
2022-09-09T23:39:14.902Z,13.40
2022-09-09T23:42:20.788Z,15.10
2022-09-09T23:45:26.635Z,15.50
2022-09-09T23:48:32.539Z,13.80
2022-09-09T23:51:39.055Z,15.60
2022-09-09T23:54:45.310Z,15.60
2022-09-09T23:57:51.907Z,17.00
